Main page
METAR-TAF:

METAR-TAF

Airports :

Nea Anchialos National Airport

Volos, Greece

latitude: 39-13N, longitude: 022-48E, elevation: 25 m

Current weather observation

The report was made 31 minutes ago, at 04:50 UTC
Wind 4 kt from the West
Temperature 19°C
Humidity 88%
Pressure 1016 hPa
Visibility 10 km or more
Few clouds at a height of 3000 ft
Scattered clouds at a height of 8000 ft

METAR: LGBL 210450Z 27004KT 9999 FEW030 SCT080 19/17 Q1016

Time: 08:21 (05:21 UTC)

Forecast

The report was made 3 hours and 21 minutes ago, at 02:00 UTC
Forecast valid from 21 at 03 UTC to 21 at 12 UTC
Wind 8 kt from the North/Northwest
Visibility 10 km or more
Scattered clouds at a height of 2500 ft
Broken clouds at a height of 8000 ft
Probability 30% :
Temporary
from 21 at 03 UTC to 21 at 06 UTC
Visibility: 6000 m
rain
Becoming
from 21 at 07 UTC to 21 at 09 UTC
Wind 12 kt from the East/Southeast

TAF: LGBL 210200Z 2103/2112 34008KT 9999 SCT025 BKN080 PROB30 TEMPO 2103/2106 6000 RA BECMG 2107/2109 11012KT

Weather observations and forecasts of more than 4000 airports (METAR and TAF reports).

The available stations are represented by yellow and red dots on the map.

Hover mouse over dot to see the name of the station.

Then click to see weather observations and forecasts.

To change the map : click on the green buttons with a black cross to zoom in, on the green button with a dash to zoom out, or on the green arrows for adjacent maps.


METAR-TAF: